Thursday, January 18, 2018, 6:54 PM EST

KEZF, Fredericksburg, Shannon Airport

Location: Fredericksburg, VA, United States Lat: 38.267
Local Time: 6:54 PM EST (23:54 GMT) Lon: -77.45
Time Zone: US/Eastern Elev: 85 ft

Show me the last for .
Show Decoded

2018-01-18 18:35 METAR KEZF 182335Z AUTO 00000KT 10SM CLR 03/M09 A3009 RMK AO2 T00291092 =
2018-01-18 18:15 METAR KEZF 182315Z AUTO 22004KT 10SM CLR 03/M09 A3008 RMK AO2 T00321091 =
2018-01-18 17:55 METAR KEZF 182255Z AUTO 23008KT 10SM CLR 04/M09 A3007 RMK AO2 T00421092 =
2018-01-18 17:35 METAR KEZF 182235Z AUTO 22008KT 10SM CLR 05/M09 A3006 RMK AO2 T00451095 =
2018-01-18 17:15 METAR KEZF 182215Z AUTO 20007KT 10SM CLR 05/M09 A3006 RMK AO2 T00461095 =
2018-01-18 16:55 METAR KEZF 182155Z AUTO 20007KT 10SM CLR 06/M10 A3006 RMK AO2 T00571100 =
2018-01-18 16:35 METAR KEZF 182135Z AUTO 22008KT 10SM CLR 07/M11 A3006 RMK AO2 T00651106 =
2018-01-18 16:15 METAR KEZF 182115Z AUTO 23007KT 10SM CLR 07/M11 A3006 RMK AO2 T00661106 =
2018-01-18 15:55 METAR KEZF 182055Z AUTO 23008KT 10SM CLR 07/M11 A3005 RMK AO2 T00681108 =
2018-01-18 15:35 METAR KEZF 182035Z AUTO 23007KT 210V270 10SM CLR 07/M11 A3005 RMK AO2 T00711111
                 =
2018-01-18 15:15 METAR KEZF 182015Z AUTO 21007KT 10SM CLR 07/M11 A3006 RMK AO2 T00691108 =
2018-01-18 14:55 METAR KEZF 181955Z AUTO 24008KT 10SM CLR 07/M11 A3006 RMK AO2 T00681110 =
2018-01-18 14:35 METAR KEZF 181935Z AUTO 22009KT 10SM CLR 06/M11 A3007 RMK AO2 T00611111 =
2018-01-18 14:15 METAR KEZF 181915Z AUTO 25006KT 10SM CLR 06/M11 A3007 RMK AO2 T00571113 =
2018-01-18 13:55 METAR KEZF 181855Z AUTO 25005G14KT 10SM CLR 05/M11 A3008 RMK AO2 T00521114 =
2018-01-18 13:35 METAR KEZF 181835Z AUTO 26008KT 10SM CLR 04/M12 A3009 RMK AO2 T00441119 =
2018-01-18 13:15 METAR KEZF 181815Z AUTO 23006KT 10SM CLR 04/M12 A3010 RMK AO2 T00431121 =
2018-01-18 12:55 METAR KEZF 181755Z AUTO 26004KT 10SM CLR 04/M12 A3012 RMK AO2 T00371117 10037
                 21097 =
2018-01-18 12:35 METAR KEZF 181735Z AUTO 27004KT 10SM CLR 03/M12 A3013 RMK AO2 T00281120 =
2018-01-18 12:15 METAR KEZF 181715Z AUTO 25003KT 10SM CLR 02/M12 A3015 RMK AO2 T00211121 =
2018-01-18 11:55 METAR KEZF 181655Z AUTO 23006KT 10SM CLR 01/M12 A3017 RMK AO2 T00131122 =
2018-01-18 11:35 METAR KEZF 181635Z AUTO 27003KT 10SM CLR 01/M13 A3018 RMK AO2 T00101126 =
2018-01-18 11:15 METAR KEZF 181615Z AUTO 30007KT 280V340 10SM CLR 01/M13 A3019 RMK AO2 T00061128
                 =
2018-01-18 10:55 METAR KEZF 181555Z AUTO 29003KT 10SM CLR 00/M13 A3019 RMK AO2 T10011129 =
2018-01-18 10:35 METAR KEZF 181535Z AUTO 26003KT 10SM CLR M01/M13 A3020 RMK AO2 T10081126 =
2018-01-18 10:15 METAR KEZF 181515Z AUTO 23004KT 10SM CLR M02/M13 A3020 RMK AO2 T10161130 =
2018-01-18 09:55 METAR KEZF 181455Z AUTO 00000KT 10SM CLR M02/M13 A3020 RMK AO2 T10211127 =
2018-01-18 09:35 METAR KEZF 181435Z AUTO 32003KT 10SM CLR M03/M12 A3020 RMK AO2 T10311117 =
2018-01-18 09:15 METAR KEZF 181415Z AUTO 26003KT 10SM CLR M04/M11 A3020 RMK AO2 T10401115 =
2018-01-18 08:55 METAR KEZF 181355Z AUTO 25003KT 10SM CLR M05/M12 A3020 RMK AO2 T10511116 =
2018-01-18 08:35 METAR KEZF 181335Z AUTO 28003KT 10SM CLR M07/M11 A3020 RMK AO2 T10671113 =
2018-01-18 08:15 METAR KEZF 181315Z AUTO 00000KT 10SM CLR M08/M11 A3021 RMK AO2 T10851115 =
2018-01-18 07:55 METAR KEZF 181255Z AUTO 00000KT 10SM CLR M10/M12 A3021 RMK AO2 T10971123 =
2018-01-18 07:35 METAR KEZF 181235Z AUTO 00000KT 10SM CLR M09/M12 A3021 RMK AO2 T10951124 =
2018-01-18 07:10 METAR KEZF 181210Z AUTO 28003KT 10SM CLR M09/M12 A3021 RMK AO2 T10931123 =
2018-01-18 06:55 METAR KEZF 181155Z AUTO 00000KT 10SM CLR M09/M12 A3021 RMK AO2 T10901124 11068
                 21102 =
2018-01-18 06:35 METAR KEZF 181135Z AUTO 24003KT 10SM CLR M09/M12 A3021 RMK AO2 T10921125 =
2018-01-18 06:15 METAR KEZF 181115Z AUTO 24004KT 10SM CLR M10/M12 A3020 RMK AO2 T10961124 =
2018-01-18 05:55 METAR KEZF 181055Z AUTO 00000KT 10SM CLR M10/M13 A3020 RMK AO2 T11001127 =
2018-01-18 05:35 METAR KEZF 181035Z AUTO 00000KT 10SM CLR M10/M13 A3020 RMK AO2 T10971126 =
2018-01-18 05:15 METAR KEZF 181015Z AUTO 22004KT 10SM CLR M10/M13 A3019 RMK AO2 T11001126 =
2018-01-18 04:55 METAR KEZF 180955Z AUTO 19003KT 10SM CLR M10/M12 A3019 RMK AO2 T11001125 =
2018-01-18 04:35 METAR KEZF 180935Z AUTO 17003KT 10SM CLR M10/M12 A3019 RMK AO2 T10991125 =
2018-01-18 04:15 METAR KEZF 180915Z AUTO 00000KT 10SM CLR M09/M13 A3018 RMK AO2 T10921126 =
2018-01-18 03:55 METAR KEZF 180855Z AUTO 13005KT 10SM CLR M09/M12 A3020 RMK AO2 T10921125 =
2018-01-18 03:35 METAR KEZF 180835Z AUTO 00000KT 10SM CLR M08/M13 A3020 RMK AO2 T10781127 =
2018-01-18 03:15 METAR KEZF 180815Z AUTO 00000KT 10SM CLR M07/M13 A3020 RMK AO2 T10731128 =
2018-01-18 02:55 METAR KEZF 180755Z AUTO 34004KT 10SM CLR M07/M13 A3020 RMK AO2 T10741128 =
2018-01-18 02:35 METAR KEZF 180735Z AUTO 35006KT 10SM CLR M07/M13 A3019 RMK AO2 T10751128 =
2018-01-18 02:15 METAR KEZF 180715Z AUTO 35006KT 10SM CLR M07/M13 A3020 RMK AO2 T10751130 =
2018-01-18 01:55 METAR KEZF 180655Z AUTO 35006KT 10SM CLR M07/M13 A3021 RMK AO2 T10731130 =
2018-01-18 01:35 METAR KEZF 180635Z AUTO 34008KT 10SM SCT075 M07/M13 A3023 RMK AO2 T10711130 =
2018-01-18 01:15 METAR KEZF 180615Z AUTO 35009KT 10SM BKN075 M07/M13 A3025 RMK AO2 T10701131 =
2018-01-18 00:55 METAR KEZF 180555Z AUTO 36006KT 10SM SCT075 M07/M13 A3027 RMK AO2 T10681131
                 11040 21069 400151069 =
2018-01-18 00:35 METAR KEZF 180535Z AUTO 35007KT 10SM CLR M07/M13 A3028 RMK AO2 T10671132 =
2018-01-18 00:15 METAR KEZF 180515Z AUTO 34006KT 10SM CLR M07/M13 A3029 RMK AO2 T10661132 =
2018-01-17 23:55 METAR KEZF 180455Z AUTO 35009KT 10SM CLR M06/M13 A3029 RMK AO2 T10651135 =
2018-01-17 23:35 METAR KEZF 180435Z AUTO 34011G18KT 10SM CLR M06/M13 A3030 RMK AO2 T10611135 =
2018-01-17 23:15 METAR KEZF 180415Z AUTO 34014G18KT 10SM SCT065 M06/M13 A3030 RMK AO2 T10601134 =
2018-01-17 22:55 METAR KEZF 180355Z AUTO 34010G17KT 10SM BKN065 BKN080 M06/M13 A3030 RMK AO2
                 T10561130 =
2018-01-17 22:35 METAR KEZF 180335Z AUTO 34010G19KT 10SM OVC065 M05/M13 A3030 RMK AO2 T10521130 =
2018-01-17 22:15 METAR KEZF 180315Z AUTO 32010G15KT 10SM OVC065 M05/M13 A3030 RMK AO2 T10481127 =
2018-01-17 21:55 METAR KEZF 180255Z AUTO 35013G19KT 10SM SCT065 BKN095 M04/M13 A3030 RMK AO2
                 T10451131 =
2018-01-17 21:35 METAR KEZF 180235Z AUTO 33010G16KT 10SM SCT060 SCT075 OVC095 M04/M12 A3030 RMK
                 AO2 T10411125 =
2018-01-17 21:15 METAR KEZF 180215Z AUTO 34008KT 10SM BKN060 OVC075 M04/M13 A3030 RMK AO2
                 T10411126 =
2018-01-17 20:55 METAR KEZF 180155Z AUTO 34008KT 10SM OVC060 M04/M12 A3030 RMK AO2 T10411124 =
2018-01-17 20:35 METAR KEZF 180135Z AUTO 35007KT 10SM OVC060 M04/M12 A3030 RMK AO2 T10431125 =
2018-01-17 20:15 METAR KEZF 180115Z AUTO 33004KT 10SM OVC060 M04/M12 A3031 RMK AO2 T10451123 =
2018-01-17 19:55 METAR KEZF 180055Z AUTO 33006KT 10SM BKN060 M04/M12 A3031 RMK AO2 T10451123 =
2018-01-17 19:35 METAR KEZF 180035Z AUTO 33006KT 10SM CLR M05/M12 A3031 RMK AO2 T10461125 =
2018-01-17 19:15 METAR KEZF 180015Z AUTO 35004KT 10SM CLR M04/M12 A3031 RMK AO2 T10431125 =
2018-01-17 18:55 METAR KEZF 172355Z AUTO 34005KT 10SM CLR M04/M12 A3032 RMK AO2 T10411125 11030
                 21041 =

Support USWX by starting your Amazon purchase here.